• Join FlightAware (Why Join?)
  • Login
  • US Flag 
01:39AM EST


 

Airport Tracker/Info


-or-


 

Live Flight TrackerFlight Track Log ✈ BOE632 ✈ 25-Jun-2013 ✈ KBFI - KBFI

Flight Track Log - Related Links

Times and Time Zones

All times are in EDT time to prevent confusion due to time zone crossing. See the BOE632 flight status page for this flight to view local times or setup timezone preferences in your user account.

Time Position Orientation Groundspeed Altitude Reporting Facility
EDT Latitude Longitude Course Direction KTS MPH feet Rate Location/Type
12:30PM 47.5119 -122.2840 143° Southeast 181 208 2,300  Level FlightAware ADS-B
12:30PM 47.5036 -122.2740 141° Southeast 202 232 2,300 -240 Level FlightAware ADS-B
12:31PM 47.4916 -122.2600 142° Southeast 219 252 2,200  Descending FlightAware ADS-B
12:31PM 47.4864 -122.2540 142° Southeast 224 258 2,300 2,520 Climbing FlightAware ADS-B
12:31PM 47.4744 -122.2400 142° Southeast 233 268 3,100 3,960 Climbing FlightAware ADS-B
12:31PM 47.4607 -122.2250 143° Southeast 241 277 4,300 4,740 Climbing FlightAware ADS-B
12:31PM 47.4520 -122.2160 145° Southeast 247 284 5,000 3,840 Climbing FlightAware ADS-B
12:32PM 47.4479 -122.2120 147° Southeast 249 287 5,200 3,720 Climbing FlightAware ADS-B
12:32PM 47.4440 -122.2090 153° Southeast 250 288 5,500 3,420 Climbing FlightAware ADS-B
12:32PM 47.4404 -122.2070 159° South 251 289 5,600 2,220 Climbing FlightAware ADS-B
12:32PM 47.4364 -122.2050 161° South 250 288 5,800 2,520 Climbing FlightAware ADS-B
12:32PM 47.4320 -122.2040 171° South 250 288 5,900 2,220 Climbing FlightAware ADS-B
12:32PM 47.4263 -122.2040 180° South 249 287 6,100 2,280 Climbing FlightAware ADS-B
12:32PM 47.4122 -122.2020 175° South 244 281 6,600 2,520 Climbing FlightAware ADS-B
12:32PM 47.4025 -122.2010 176° South 250 288 7,000 3,300 Climbing FlightAware ADS-B
12:32PM 47.3914 -122.2010 180° South 253 291 7,600 4,680 Climbing FlightAware ADS-B
12:32PM 47.3861 -122.2010 180° South 251 289 8,100 6,000 Climbing FlightAware ADS-B
12:32PM 47.3824 -122.2010 180° South 250 288 8,300 4,260 Climbing FlightAware ADS-B
12:33PM 47.3787 -122.2030 200° South 250 288 8,600 4,500 Climbing FlightAware ADS-B
12:33PM 47.3737 -122.2050 195° South 252 290 8,900 5,100 Climbing FlightAware ADS-B
12:33PM 47.3705 -122.2080 212° Southwest 253 291 9,200 4,260 Climbing FlightAware ADS-B
12:33PM 47.3669 -122.2110 209° Southwest 255 293 9,400 4,260 Climbing FlightAware ADS-B
12:33PM 47.3638 -122.2150 221° Southwest 256 295 9,700 4,980 Climbing FlightAware ADS-B
12:33PM 47.3609 -122.2190 223° Southwest 257 296 9,900 4,500 Climbing FlightAware ADS-B
12:33PM 47.3571 -122.2250 227° Southwest 261 300 10,300 3,960 Climbing FlightAware ADS-B
12:33PM 47.3538 -122.2310 231° Southwest 264 304 10,500 3,960 Climbing FlightAware ADS-B
12:33PM 47.3506 -122.2390 239° Southwest 268 308 10,900 3,600 Climbing FlightAware ADS-B
12:33PM 47.3484 -122.2460 245° Southwest 271 312 11,100 3,960 Climbing FlightAware ADS-B
12:33PM 47.3465 -122.2540 251° West 275 316 11,500 4,620 Climbing FlightAware ADS-B
12:33PM 47.3450 -122.2630 256° West 279 321 11,800 4,080 Climbing FlightAware ADS-B
12:34PM 47.3406 -122.3000 260° West 284 327 13,200 4,260 Climbing FlightAware ADS-B
12:34PM 47.3360 -122.3380 260° West 285 328 14,600 4,080 Climbing FlightAware ADS-B
12:34PM 47.3263 -122.3980 257° West 289 333 16,700 3,720 Climbing FlightAware ADS-B
12:35PM 47.3160 -122.4560 255° West 298 343 18,500 3,300 Climbing FlightAware ADS-B
12:36PM 47.3043 -122.5220 255° West 311 358 20,200 3,000 Climbing FlightAware ADS-B
12:36PM 47.2923 -122.5870 255° West 323 372 21,700 1,740 Climbing FlightAware ADS-B
12:37PM 47.2805 -122.6520 255° West 328 377 22,000 240 Climbing FlightAware ADS-B
12:37PM 47.2672 -122.7250 255° West 327 376 22,000 900 Level FlightAware ADS-B
12:38PM 47.2548 -122.7910 255° West 331 381 23,000 2,460 Climbing FlightAware ADS-B
12:38PM 47.2419 -122.8610 255° West 338 389 24,600 2,760 Climbing FlightAware ADS-B
12:39PM 47.2301 -122.9230 254° West 345 397 25,800 2,700 Climbing FlightAware ADS-B
12:39PM 47.2241 -122.9550 255° West 348 400 26,500 2,700 Climbing FlightAware ADS-B
12:39PM 47.2162 -123.0170 259° West 356 410 27,600 2,520 Climbing FlightAware ADS-B
12:40PM 47.2050 -123.0900 257° West 361 415 28,900 2,520 Climbing FlightAware ADS-B
12:40PM 47.1903 -123.1740 256° West 364 419 30,400 2,340 Climbing FlightAware ADS-B
12:41PM 47.1772 -123.2470 255° West 366 421 31,500 2,160 Climbing FlightAware ADS-B
12:41PM 47.1643 -123.3190 255° West 370 426 32,600 1,860 Climbing FlightAware ADS-B
12:42PM 47.1509 -123.3930 255° West 379 436 33,400 1,560 Climbing FlightAware ADS-B
12:42PM 47.1441 -123.4240 252° West 381 438 33,700 1,380 Climbing FlightAware ADS-B
12:43PM 47.1241 -123.4990 249° West 388 447 34,400 1,320 Climbing FlightAware ADS-B
12:43PM 47.1040 -123.5740 249° West 398 458 35,100 1,260 Climbing FlightAware ADS-B
12:44PM 47.0836 -123.6490 248° West 404 465 35,700 1,260 Climbing FlightAware ADS-B
12:44PM 47.0625 -123.7270 248° West 411 473 36,400 1,140 Climbing FlightAware ADS-B
12:45PM 47.0412 -123.8060 248° West 417 480 36,900 1,140 Climbing FlightAware ADS-B
12:46PM 47.0031 -123.9450 248° West 420 483 38,000 1,200 Climbing FlightAware ADS-B
12:46PM 46.9975 -123.9690 251° West 421 484 38,200 1,500 Climbing FlightAware ADS-B
12:46PM 46.9945 -123.9900 258° West 423 487 38,400 1,200 Climbing FlightAware ADS-B
12:46PM 46.9932 -124.0250 267° West 429 494 38,600 960 Climbing FlightAware ADS-B
12:46PM 46.9962 -124.0570 278° West 436 502 38,800 1,020 Climbing FlightAware ADS-B
12:46PM 47.0047 -124.0930 289° West 444 511 39,000 960 Climbing FlightAware ADS-B
12:47PM 47.0098 -124.1080 297° West 449 517 39,100 900 Climbing FlightAware ADS-B
12:47PM 47.0181 -124.1260 304° West 454 522 39,200 960 Climbing FlightAware ADS-B
12:47PM 47.0244 -124.1380 308° West 458 527 39,300 1,200 Climbing FlightAware ADS-B
12:47PM 47.0326 -124.1500 315° West 462 532 39,400 1,080 Climbing FlightAware ADS-B
12:47PM 47.0409 -124.1610 318° Northwest 466 536 39,500 900 Climbing FlightAware ADS-B
12:47PM 47.0532 -124.1740 324° Northwest 470 541 39,600 900 Climbing FlightAware ADS-B
12:47PM 47.0646 -124.1840 329° Northwest 474 545 39,700 1,080 Climbing FlightAware ADS-B
12:47PM 47.0759 -124.1910 337° Northwest 478 550 39,800 960 Climbing FlightAware ADS-B
12:47PM 47.0911 -124.1980 343° North 481 554 39,900 1,260 Climbing FlightAware ADS-B
12:48PM 47.1565 -124.2210 347° North 481 554 40,600 1,080 Climbing FlightAware ADS-B
12:48PM 47.2226 -124.2440 347° North 481 554 41,000 360 Climbing FlightAware ADS-B
12:49PM 47.2879 -124.2670 347° North 482 555 41,000  Level FlightAware ADS-B
12:49PM 47.3535 -124.2900 347° North 483 556 41,000  Level FlightAware ADS-B
12:50PM 47.4204 -124.3140 346° North 484 557 41,000  Level FlightAware ADS-B
12:50PM 47.4870 -124.3370 347° North 485 558 41,000 -240 Level FlightAware ADS-B
12:51PM 47.5532 -124.3600 347° North 484 557 40,800 -780 Descending FlightAware ADS-B
12:52PM 47.6526 -124.3950 347° North 476 548 40,000 -1,920 Descending FlightAware ADS-B
12:52PM 47.7093 -124.4130 348° North 415 478 38,400 -4,920 Descending FlightAware ADS-B
12:53PM 47.7674 -124.4320 348° North 435 501 35,100 -7,500 Descending FlightAware ADS-B
12:53PM 47.8294 -124.4530 347° North 446 513 30,800 -8,460 Descending FlightAware ADS-B
12:54PM 47.8904 -124.4760 346° North 447 514 26,400 -8,100 Descending FlightAware ADS-B
12:54PM 47.9530 -124.5000 346° North 435 501 22,300 -7,200 Descending FlightAware ADS-B
12:55PM 48.0230 -124.5280 345° North 400 460 17,900 -5,280 Descending FlightAware
12:56PM 48.0880 -124.5540 345° North 336 387 15,400 -2,160 Descending FlightAware
12:56PM 48.1370 -124.5730 345° North 302 348 15,200 -180 Descending FlightAware
12:57PM 48.2090 -124.5570 North 327 376 15,200  Level FlightAware
12:58PM 48.2500 -124.4880 48° Northeast 332 382 15,200  Level FlightAware
12:58PM 48.2650 -124.4060 75° East 320 368 15,200  Level FlightAware
12:59PM 48.2540 -124.3060 99° East 305 351 15,200  Level FlightAware
01:00PM 48.2410 -124.2200 103° East 303 349 15,200  Level FlightAware
01:00PM 48.2290 -124.1390 103° East 287 330 15,200  Level FlightAware
01:01PM 48.2190 -124.0680 102° East 234 269 15,200  Level FlightAware
01:02PM 48.2110 -124.0040 101° East 206 237 15,200  Level FlightAware
01:03PM 48.2050 -123.9490 99° East 180 207 15,200  Level FlightAware
01:03PM 48.1990 -123.9020 101° East 168 193 15,200  Level FlightAware
01:03PM 48.1968 -123.8820 99° East 169 194 15,200  Level FlightAware ADS-B
01:04PM 48.1929 -123.8490 100° East 158 182 15,200  Level FlightAware ADS-B
01:04PM 48.1892 -123.8180 100° East 159 183 15,200  Level FlightAware ADS-B
01:05PM 48.1853 -123.7850 100° East 158 182 15,200  Level FlightAware ADS-B
01:05PM 48.1833 -123.7680 100° East 159 183 15,200 -180 Level FlightAware ADS-B
01:06PM 48.1797 -123.7420 102° East 158 182 15,100  Descending FlightAware ADS-B
01:06PM 48.1767 -123.7190 101° East 159 183 15,200 120 Climbing FlightAware ADS-B
01:06PM 48.1745 -123.7030 102° East 161 185 15,200  Level FlightAware ADS-B
01:07PM 48.1717 -123.6760 99° East 160 184 15,200  Level FlightAware ADS-B
01:07PM 48.1701 -123.6590 98° East 157 181 15,200  Level FlightAware ADS-B
01:07PM 48.1669 -123.6260 98° East 153 176 15,200  Level FlightAware ADS-B
01:08PM 48.1637 -123.5910 98° East 190 219 15,200  Level FlightAware ADS-B
01:08PM 48.1593 -123.5460 98° East 243 280 15,200 120 Level FlightAware ADS-B
01:09PM 48.1570 -123.5250 99° East 267 307 15,300 240 Climbing FlightAware ADS-B
01:09PM 48.1539 -123.5060 104° East 280 322 15,300 -180 Level FlightAware ADS-B
01:09PM 48.1425 -123.4450 106° East 302 348 15,200 -840 Descending FlightAware ADS-B
01:10PM 48.1316 -123.3840 105° East 304 350 14,500 -1,500 Descending FlightAware ADS-B
01:10PM 48.1206 -123.3230 105° East 297 342 13,700 -1,500 Descending FlightAware ADS-B
01:11PM 48.1098 -123.2630 105° East 293 337 13,000 -1,680 Descending FlightAware ADS-B
01:11PM 48.0990 -123.2040 105° East 297 342 12,000 -1,920 Descending FlightAware ADS-B
01:12PM 48.0883 -123.1470 106° East 298 343 11,200 -840 Descending FlightAware ADS-B
01:12PM 48.0773 -123.0880 106° East 295 339 11,200  Level FlightAware ADS-B
01:13PM 48.0662 -123.0270 105° East 293 337 11,200  Level FlightAware ADS-B
01:13PM 48.0551 -122.9680 106° East 291 335 11,200 -720 Level FlightAware ADS-B
01:14PM 48.0441 -122.9090 106° East 294 338 10,500 -1,260 Descending FlightAware ADS-B
01:14PM 48.0358 -122.8650 106° East 291 335 10,100 -1,200 Descending FlightAware ADS-B
01:14PM 48.0344 -122.8590 109° East 289 333 10,000 -2,280 Descending FlightAware ADS-B
01:14PM 48.0322 -122.8510 112° Southeast 286 329 9,800 -2,280 Descending FlightAware ADS-B
01:14PM 48.0301 -122.8460 122° Southeast 284 327 9,700 -1,500 Descending FlightAware ADS-B
01:15PM 48.0258 -122.8390 133° Southeast 280 322 9,600 -1,380 Descending FlightAware ADS-B
01:15PM 48.0218 -122.8340 140° Southeast 277 319 9,500 -2,040 Descending FlightAware ADS-B
01:15PM 48.0159 -122.8280 146° Southeast 274 315 9,300 -1,740 Descending FlightAware ADS-B
01:15PM 47.9996 -122.8130 148° Southeast 270 311 8,900 -1,620 Descending FlightAware ADS-B
01:15PM 47.9640 -122.7810 149° Southeast 269 310 8,000 -1,740 Descending FlightAware ADS-B
01:16PM 47.9504 -122.7690 149° Southeast 269 310 7,600 -1,740 Descending FlightAware ADS-B
01:16PM 47.9340 -122.7540 148° Southeast 267 307 7,200 -1,560 Descending FlightAware ADS-B
01:16PM 47.9180 -122.7400 150° Southeast 263 303 6,800 -1,560 Descending FlightAware ADS-B
01:16PM 47.9021 -122.7250 148° Southeast 263 303 6,400 -1,440 Descending FlightAware ADS-B
01:17PM 47.8866 -122.7110 149° Southeast 260 299 6,100 -1,260 Descending FlightAware ADS-B
01:17PM 47.8779 -122.7030 148° Southeast 257 296 5,900 -1,440 Descending FlightAware ADS-B
01:17PM 47.8735 -122.6990 149° Southeast 257 296 5,800 -1,500 Descending FlightAware ADS-B
01:17PM 47.8700 -122.6950 143° Southeast 258 297 5,700 -1,740 Descending FlightAware ADS-B
01:17PM 47.8666 -122.6900 135° Southeast 259 298 5,600 -1,740 Descending FlightAware ADS-B
01:17PM 47.8635 -122.6850 133° Southeast 260 299 5,500 -1,500 Descending FlightAware ADS-B
01:17PM 47.8607 -122.6800 130° Southeast 262 302 5,400 -1,740 Descending FlightAware ADS-B
01:17PM 47.8585 -122.6750 123° Southeast 264 304 5,300 -1,020 Descending FlightAware ADS-B
01:17PM 47.8568 -122.6700 117° Southeast 266 306 5,300 -780 Level FlightAware ADS-B
01:17PM 47.8545 -122.6630 116° Southeast 267 307 5,200 -1,380 Descending FlightAware ADS-B
01:18PM 47.8484 -122.6410 112° Southeast 265 305 4,900 -1,500 Descending FlightAware ADS-B
01:18PM 47.8412 -122.6160 113° Southeast 264 304 4,500 -1,620 Descending FlightAware ADS-B
01:18PM 47.8247 -122.5600 114° Southeast 260 299 3,600 -1,620 Descending FlightAware ADS-B
01:19PM 47.7943 -122.5240 141° Southeast 255 293 2,700 -1,440 Descending FlightAware ADS-B
01:19PM 47.7817 -122.5150 154° Southeast 243 280 2,500 -660 Descending FlightAware ADS-B
01:19PM 47.7667 -122.5040 154° Southeast 231 266 2,400 -180 Descending FlightAware ADS-B
01:20PM 47.7447 -122.4860 151° Southeast 222 255 2,400  Level FlightAware ADS-B
01:20PM 47.7216 -122.4660 150° Southeast 209 241 2,400  Level FlightAware ADS-B
01:21PM 47.7089 -122.4540 148° Southeast 204 235 2,400  Level FlightAware ADS-B
01:21PM 47.6811 -122.4290 149° Southeast 212 244 2,400  Level FlightAware ADS-B
01:21PM 47.6717 -122.4220 153° Southeast 213 245 2,400  Level FlightAware ADS-B
01:22PM 47.6587 -122.4110 150° Southeast 212 244 2,400  Level FlightAware ADS-B
01:22PM 47.6467 -122.4010 151° Southeast 203 234 2,400  Level FlightAware ADS-B
01:22PM 47.6375 -122.3930 150° Southeast 190 219 2,400 -240 Level FlightAware ADS-B
01:22PM 47.6266 -122.3840 151° Southeast 172 198 2,300 -960 Descending FlightAware ADS-B
01:23PM 47.6111 -122.3710 151° Southeast 161 185 1,800 -1,080 Descending FlightAware ADS-B
01:23PM 47.5955 -122.3580 151° Southeast 147 169 1,400 -960 Descending FlightAware ADS-B
01:24PM 47.5714 -122.3383 151° Southeast 137 158 700 -660 Descending Seattle Center
01:25PM 47.5411 -122.3117 149° Southeast 131 151 300 -420 Descending Seattle Center
01:27PM 47.5300 -122.3020 132° Southeast  Level Estimated
01:34PM 47.5300 -122.3020 132° Southeast  Level Estimated
01:35PM 47.5300 -122.3020 132° Southeast  Level Estimated
01:36PM 47.5300 -122.3020 132° Southeast  Level Estimated
01:37PM 47.5300 -122.3020 132° Southeast  Level Estimated